Obelix — 7JAX — position and weather

sailwx.info

Track history (hours):
 
Tides and Currents Weather Stations Pressure Air Temp Water Temp Dewpoint Dewpoint Depression Visibility Wind Speed Wind Dir Waves Ship Positions

Obelix

Last reported at 2014-Oct-31 13:26 UTC. Time now 2014-Nov-01 13:17 UTC.
Position N 34°37' E 134°58'.

Length 74 m; draft 4.5 m.

Type: Ship (hazmat cat D). MMSI: 432528000.

Date/timePositionNaut miles runAvg speedWind from/ knotsBaromVisibWave heightAir tempDewpointWater temp
2014-Oct-31 13:26N 34°37' E 134°58'910.6
2014-Oct-31 12:33N 34°35' E 135°09'1212.0
2014-Oct-31 11:33N 34°33' E 135°24'2 1.5
2014-Oct-31 10:33N 34°32' E 135°25'0 0.0
2014-Oct-31 09:33N 34°32' E 135°25'0 0.0
2014-Oct-31 08:33N 34°32' E 135°25'0 0.0
2014-Oct-31 07:32N 34°32' E 135°25'0 0.0
2014-Oct-31 06:33N 34°32' E 135°25'0 0.0
2014-Oct-31 05:33N 34°32' E 135°25'1 1.1
2014-Oct-31 04:29N 34°33' E 135°24'1010.2
2014-Oct-31 03:33N 34°34' E 135°13'1111.0
2014-Oct-31 02:33N 34°37' E 135°00'12012.0
2014-Oct-30 16:32N 33°57' E 132°43'112 4.3
2014-Oct-29 14:33N 34°34' E 134°50'1212.3
2014-Oct-29 13:33N 34°36' E 135°05'1211.9
2014-Oct-29 12:33N 34°34' E 135°19'5 5.4
2014-Oct-29 11:33N 34°33' E 135°25'0 0.0
2014-Oct-29 10:33N 34°33' E 135°25'0 0.0
2014-Oct-29 09:33N 34°33' E 135°25'0 0.0
2014-Oct-29 08:33N 34°33' E 135°25'0 0.0
2014-Oct-29 07:33N 34°33' E 135°25'5 4.5
2014-Oct-29 06:33N 34°33' E 135°20'1212.3
2014-Oct-29 05:33N 34°35' E 135°05'1110.5
2014-Oct-29 04:32N 34°34' E 134°52'115 3.4
2014-Oct-27 18:21N 33°57' E 132°41'11911.8
2014-Oct-27 08:17N 34°37' E 134°56'7 8.6
2014-Oct-27 07:31N 34°36' E 135°04'1111.8
2014-Oct-27 06:33N 34°34' E 135°18'6 6.2
2014-Oct-27 05:33N 34°33' E 135°25'0 0.0
2014-Oct-27 04:33N 34°33' E 135°25'0 0.0
2014-Oct-27 03:33N 34°33' E 135°25'0 0.0
2014-Oct-27 02:33N 34°33' E 135°25'0 0.0
2014-Oct-27 01:33N 34°33' E 135°25'3 2.8
2014-Oct-27 00:33N 34°33' E 135°22'2 1.0
2014-Oct-26 22:33N 34°32' E 135°20'0 0.0
2014-Oct-26 21:03N 34°32' E 135°20'0 0.0
2014-Oct-26 20:33N 34°32' E 135°20'0 0.0
2014-Oct-26 19:27N 34°32' E 135°20'0 0.0
2014-Oct-26 18:33N 34°32' E 135°20'0 0.0
2014-Oct-26 17:21N 34°32' E 135°20'0 0.0
2014-Oct-26 16:21N 34°32' E 135°20'0 0.0
2014-Oct-26 15:21N 34°32' E 135°20'0 0.0
2014-Oct-26 14:21N 34°32' E 135°20'0 0.1
2014-Oct-26 13:33N 34°32' E 135°20'0 0.1
2014-Oct-26 12:27N 34°32' E 135°20'0 0.0
2014-Oct-26 10:33N 34°32' E 135°20'0 0.0
2014-Oct-26 09:27N 34°32' E 135°20'0 0.0
2014-Oct-26 08:33N 34°32' E 135°20'0 0.0
2014-Oct-26 07:33N 34°32' E 135°20'0 0.0
2014-Oct-26 06:27N 34°32' E 135°20'0 0.0
2014-Oct-26 05:27N 34°32' E 135°20'0 0.0
2014-Oct-26 04:03N 34°32' E 135°20'0 0.0
2014-Oct-26 03:33N 34°32' E 135°20'0 0.0
2014-Oct-26 02:33N 34°32' E 135°20'0 0.0
2014-Oct-26 00:27N 34°32' E 135°20'3 3.6
2014-Oct-25 23:33N 34°33' E 135°16'1211.7
2014-Oct-25 22:33N 34°36' E 135°02'10 9.6
2014-Oct-25 21:33N 34°34' E 134°51'  
2014-Oct-23 12:20N 34°09' E 134°44'  
Track history (hours):
 
Tides and Currents Weather Stations Pressure Air Temp Water Temp Dewpoint Dewpoint Depression Visibility Wind Speed Wind Dir Waves Ship Positions

Obelix

Last reported at 2014-Oct-31 13:26 UTC. Time now 2014-Nov-01 13:17 UTC.
Position N 34°37' E 134°58'.

Length 74 m; draft 4.5 m.

Type: Ship (hazmat cat D). MMSI: 432528000.

Date/timePositionNaut miles runAvg speedWind from/ knotsBaromVisibWave heightAir tempDewpointWater temp
2014-Oct-31 13:26N 34°37' E 134°58'910.6
2014-Oct-31 12:33N 34°35' E 135°09'1212.0
2014-Oct-31 11:33N 34°33' E 135°24'2 1.5
2014-Oct-31 10:33N 34°32' E 135°25'0 0.0
2014-Oct-31 09:33N 34°32' E 135°25'0 0.0
2014-Oct-31 08:33N 34°32' E 135°25'0 0.0
2014-Oct-31 07:32N 34°32' E 135°25'0 0.0
2014-Oct-31 06:33N 34°32' E 135°25'0 0.0
2014-Oct-31 05:33N 34°32' E 135°25'1 1.1
2014-Oct-31 04:29N 34°33' E 135°24'1010.2
2014-Oct-31 03:33N 34°34' E 135°13'1111.0
2014-Oct-31 02:33N 34°37' E 135°00'12012.0
2014-Oct-30 16:32N 33°57' E 132°43'112 4.3
2014-Oct-29 14:33N 34°34' E 134°50'1212.3
2014-Oct-29 13:33N 34°36' E 135°05'1211.9
2014-Oct-29 12:33N 34°34' E 135°19'5 5.4
2014-Oct-29 11:33N 34°33' E 135°25'0 0.0
2014-Oct-29 10:33N 34°33' E 135°25'0 0.0
2014-Oct-29 09:33N 34°33' E 135°25'0 0.0
2014-Oct-29 08:33N 34°33' E 135°25'0 0.0
2014-Oct-29 07:33N 34°33' E 135°25'5 4.5
2014-Oct-29 06:33N 34°33' E 135°20'1212.3
2014-Oct-29 05:33N 34°35' E 135°05'1110.5
2014-Oct-29 04:32N 34°34' E 134°52'115 3.4
2014-Oct-27 18:21N 33°57' E 132°41'11911.8
2014-Oct-27 08:17N 34°37' E 134°56'7 8.6
2014-Oct-27 07:31N 34°36' E 135°04'1111.8
2014-Oct-27 06:33N 34°34' E 135°18'6 6.2
2014-Oct-27 05:33N 34°33' E 135°25'0 0.0
2014-Oct-27 04:33N 34°33' E 135°25'0 0.0
2014-Oct-27 03:33N 34°33' E 135°25'0 0.0
2014-Oct-27 02:33N 34°33' E 135°25'0 0.0
2014-Oct-27 01:33N 34°33' E 135°25'3 2.8
2014-Oct-27 00:33N 34°33' E 135°22'2 1.0
2014-Oct-26 22:33N 34°32' E 135°20'0 0.0
2014-Oct-26 21:03N 34°32' E 135°20'0 0.0
2014-Oct-26 20:33N 34°32' E 135°20'0 0.0
2014-Oct-26 19:27N 34°32' E 135°20'0 0.0
2014-Oct-26 18:33N 34°32' E 135°20'0 0.0
2014-Oct-26 17:21N 34°32' E 135°20'0 0.0
2014-Oct-26 16:21N 34°32' E 135°20'0 0.0
2014-Oct-26 15:21N 34°32' E 135°20'0 0.0
2014-Oct-26 14:21N 34°32' E 135°20'0 0.1
2014-Oct-26 13:33N 34°32' E 135°20'0 0.1
2014-Oct-26 12:27N 34°32' E 135°20'0 0.0
2014-Oct-26 10:33N 34°32' E 135°20'0 0.0
2014-Oct-26 09:27N 34°32' E 135°20'0 0.0
2014-Oct-26 08:33N 34°32' E 135°20'0 0.0
2014-Oct-26 07:33N 34°32' E 135°20'0 0.0
2014-Oct-26 06:27N 34°32' E 135°20'0 0.0
2014-Oct-26 05:27N 34°32' E 135°20'0 0.0
2014-Oct-26 04:03N 34°32' E 135°20'0 0.0
2014-Oct-26 03:33N 34°32' E 135°20'0 0.0
2014-Oct-26 02:33N 34°32' E 135°20'0 0.0
2014-Oct-26 00:27N 34°32' E 135°20'3 3.6
2014-Oct-25 23:33N 34°33' E 135°16'1211.7
2014-Oct-25 22:33N 34°36' E 135°02'10 9.6
2014-Oct-25 21:33N 34°34' E 134°51'  
2014-Oct-23 12:20N 34°09' E 134°44'  

Dump ship's entire track history